createdAt,value
2018-12-18T00:00:19.381Z,20.8
2018-12-18T00:01:21.060Z,20.7
2018-12-18T00:02:22.957Z,20.7
2018-12-18T00:03:24.574Z,20.7
2018-12-18T00:04:26.204Z,20.7
2018-12-18T00:05:28.100Z,20.7
2018-12-18T00:06:29.447Z,20.8
2018-12-18T00:07:30.796Z,20.7
2018-12-18T00:08:32.143Z,20.7
2018-12-18T00:09:33.744Z,20.8
2018-12-18T00:10:34.820Z,20.7
2018-12-18T00:11:36.493Z,20.7
2018-12-18T00:12:38.111Z,20.7
2018-12-18T00:13:39.711Z,20.7
2018-12-18T00:14:41.343Z,20.7
2018-12-18T00:15:43.236Z,20.7
2018-12-18T00:16:44.581Z,20.7
2018-12-18T00:17:45.906Z,20.7
2018-12-18T00:18:47.525Z,20.7
2018-12-18T00:19:49.144Z,20.7
2018-12-18T00:20:50.806Z,20.7
2018-12-18T00:21:52.424Z,20.7
2018-12-18T00:22:54.044Z,20.7
2018-12-18T00:23:55.940Z,20.7
2018-12-18T00:24:57.284Z,20.7
2018-12-18T00:25:58.620Z,20.7
2018-12-18T00:27:00.518Z,20.7
2018-12-18T00:28:02.140Z,20.8
2018-12-18T00:29:03.757Z,20.8
2018-12-18T00:30:05.354Z,20.8
2018-12-18T00:31:06.976Z,20.8
2018-12-18T00:32:08.599Z,20.8
2018-12-18T00:33:10.518Z,20.7
2018-12-18T00:34:11.585Z,20.7
2018-12-18T00:35:12.629Z,20.7
2018-12-18T00:36:13.978Z,20.8
2018-12-18T00:37:15.873Z,20.8
2018-12-18T00:38:17.479Z,20.8
2018-12-18T00:39:19.123Z,20.8
2018-12-18T00:40:21.009Z,20.7
2018-12-18T00:41:22.657Z,20.7
2018-12-18T00:42:24.552Z,20.8
2018-12-18T00:43:26.173Z,20.7
2018-12-18T00:44:27.772Z,20.8
2018-12-18T00:45:29.389Z,20.8
2018-12-18T00:46:31.025Z,20.7
2018-12-18T00:47:32.918Z,20.8
2018-12-18T00:48:34.536Z,20.7
2018-12-18T00:49:36.158Z,20.7
2018-12-18T00:50:37.802Z,20.7
2018-12-18T00:51:39.696Z,20.8
2018-12-18T00:52:41.591Z,20.7
2018-12-18T00:53:43.484Z,20.7
2018-12-18T00:54:45.086Z,20.7
2018-12-18T00:55:46.410Z,20.8
2018-12-18T00:56:48.026Z,20.8
2018-12-18T00:57:49.095Z,20.7
2018-12-18T00:58:50.998Z,20.7
2018-12-18T00:59:52.628Z,20.7
2018-12-18T01:00:54.524Z,20.7
2018-12-18T01:01:56.420Z,20.7
2018-12-18T01:02:57.741Z,20.7
2018-12-18T01:03:59.342Z,20.7
2018-12-18T01:05:01.236Z,20.8
2018-12-18T01:06:03.162Z,20.7
2018-12-18T01:07:04.784Z,20.7
2018-12-18T01:08:06.678Z,20.7
2018-12-18T01:09:08.635Z,20.7
2018-12-18T01:10:10.530Z,20.7
2018-12-18T01:11:12.130Z,20.8
2018-12-18T01:12:14.026Z,20.7
2018-12-18T01:13:15.648Z,20.7
2018-12-18T01:14:17.272Z,20.7
2018-12-18T01:15:19.170Z,20.7
2018-12-18T01:16:20.495Z,20.7
2018-12-18T01:17:21.844Z,20.7
2018-12-18T01:18:23.448Z,20.7
2018-12-18T01:19:25.345Z,20.7
2018-12-18T01:20:26.680Z,20.7
2018-12-18T01:21:28.300Z,20.7
2018-12-18T01:22:29.698Z,20.8
2018-12-18T01:23:31.323Z,20.7
2018-12-18T01:24:32.402Z,20.7
2018-12-18T01:25:34.013Z,20.7
2018-12-18T01:26:35.635Z,20.7
2018-12-18T01:27:37.534Z,20.7
2018-12-18T01:28:39.447Z,20.7
2018-12-18T01:29:41.069Z,20.7
2018-12-18T01:30:43.012Z,20.8
2018-12-18T01:31:44.908Z,20.8
2018-12-18T01:32:46.533Z,20.8
2018-12-18T01:33:48.434Z,20.8
2018-12-18T01:34:49.759Z,20.7
2018-12-18T01:35:51.385Z,20.8
2018-12-18T01:36:53.285Z,20.7
2018-12-18T01:37:54.888Z,20.7
2018-12-18T01:38:56.788Z,20.7
2018-12-18T01:39:58.411Z,20.8
2018-12-18T01:41:00.038Z,20.8
2018-12-18T01:42:01.368Z,20.8
2018-12-18T01:43:02.714Z,20.8
2018-12-18T01:44:04.340Z,20.8
2018-12-18T01:45:05.958Z,20.7
2018-12-18T01:46:07.583Z,20.7
2018-12-18T01:47:09.480Z,20.7
2018-12-18T01:48:11.082Z,20.7
2018-12-18T01:49:12.403Z,20.7
2018-12-18T01:50:14.023Z,20.8
2018-12-18T01:51:15.920Z,20.8
2018-12-18T01:52:16.992Z,20.7
2018-12-18T01:53:18.614Z,20.8
2018-12-18T01:54:20.238Z,20.7
2018-12-18T01:55:22.138Z,20.7
2018-12-18T01:56:23.760Z,20.8
2018-12-18T01:57:25.087Z,20.8
2018-12-18T01:58:26.708Z,20.7
2018-12-18T01:59:28.623Z,20.7
2018-12-18T02:00:30.530Z,20.8
2018-12-18T02:01:32.416Z,20.7
2018-12-18T02:02:33.469Z,20.7
2018-12-18T02:03:34.523Z,20.8
2018-12-18T02:04:35.851Z,20.8
2018-12-18T02:05:37.497Z,20.7
2018-12-18T02:06:39.396Z,20.8
2018-12-18T02:07:40.742Z,20.7
2018-12-18T02:08:42.365Z,20.8
2018-12-18T02:09:43.987Z,20.7
2018-12-18T02:10:45.040Z,20.8
2018-12-18T02:11:46.364Z,20.8
2018-12-18T02:12:47.764Z,20.7
2018-12-18T02:13:48.837Z,20.7
2018-12-18T02:15:54.831Z,20.7
2018-12-18T02:16:56.730Z,20.8
2018-12-18T02:17:58.058Z,20.8
2018-12-18T02:18:59.682Z,20.7
2018-12-18T02:20:00.730Z,20.8
2018-12-18T02:21:02.085Z,20.7
2018-12-18T02:22:03.705Z,20.7
2018-12-18T02:23:05.602Z,20.7
2018-12-18T02:24:07.229Z,20.8
2018-12-18T02:25:08.853Z,20.8
2018-12-18T02:26:10.207Z,20.7
2018-12-18T02:27:11.826Z,20.7
2018-12-18T02:28:13.727Z,20.7
2018-12-18T02:29:15.348Z,20.7
2018-12-18T02:30:16.956Z,20.7
2018-12-18T02:31:18.857Z,20.7
2018-12-18T02:32:20.482Z,20.8
2018-12-18T02:33:21.833Z,20.7
2018-12-18T02:34:23.441Z,20.8
2018-12-18T02:35:25.060Z,20.7
2018-12-18T02:36:26.689Z,20.8
2018-12-18T02:37:28.314Z,20.7
2018-12-18T02:38:29.945Z,20.8
2018-12-18T02:39:31.841Z,20.7
2018-12-18T02:40:33.737Z,20.8
2018-12-18T02:41:35.636Z,20.8
2018-12-18T02:42:36.960Z,20.7
2018-12-18T02:43:38.581Z,20.7
2018-12-18T02:44:40.201Z,20.7
2018-12-18T02:45:41.527Z,20.8
2018-12-18T02:46:43.148Z,20.8
2018-12-18T02:47:44.778Z,20.7
2018-12-18T02:48:46.398Z,20.8
2018-12-18T02:49:47.724Z,20.8
2018-12-18T02:50:49.074Z,20.7
2018-12-18T02:51:50.403Z,20.8
2018-12-18T02:52:51.733Z,20.8
2018-12-18T02:53:53.068Z,20.7
2018-12-18T02:54:54.696Z,20.8
2018-12-18T02:55:56.297Z,20.7
2018-12-18T02:56:57.645Z,20.8
2018-12-18T02:57:59.545Z,20.8
2018-12-18T02:59:01.452Z,20.7
2018-12-18T03:00:03.073Z,20.7
2018-12-18T03:01:04.682Z,20.7
2018-12-18T03:02:06.035Z,20.8
2018-12-18T03:03:07.384Z,20.7
2018-12-18T03:04:08.712Z,20.7
2018-12-18T03:05:10.335Z,20.7
2018-12-18T03:06:12.232Z,20.7
2018-12-18T03:07:13.856Z,20.8
2018-12-18T03:08:15.481Z,20.8
2018-12-18T03:09:17.086Z,20.8
2018-12-18T03:10:18.985Z,20.7
2018-12-18T03:11:20.614Z,20.8
2018-12-18T03:12:22.506Z,20.7
2018-12-18T03:13:24.404Z,20.7
2018-12-18T03:14:25.756Z,20.7
2018-12-18T03:15:27.404Z,20.8
2018-12-18T03:16:29.305Z,20.8
2018-12-18T03:17:31.201Z,20.7
2018-12-18T03:18:32.825Z,20.8
2018-12-18T03:19:34.449Z,20.8
2018-12-18T03:20:36.065Z,20.8
2018-12-18T03:21:37.959Z,20.8
2018-12-18T03:22:39.581Z,20.8
2018-12-18T03:23:41.183Z,20.8
2018-12-18T03:24:43.080Z,20.7
2018-12-18T03:25:44.985Z,20.8
2018-12-18T03:26:46.610Z,20.8
2018-12-18T03:27:48.216Z,20.8
2018-12-18T03:28:49.849Z,20.8
2018-12-18T03:29:51.197Z,20.8
2018-12-18T03:30:52.816Z,20.8
2018-12-18T03:31:54.438Z,20.8
2018-12-18T03:32:55.798Z,20.8
2018-12-18T03:33:57.698Z,20.8
2018-12-18T03:34:59.600Z,20.8
2018-12-18T03:36:01.511Z,20.8
2018-12-18T03:37:03.153Z,20.7
2018-12-18T03:38:04.781Z,20.8
2018-12-18T03:39:06.405Z,20.8
2018-12-18T03:40:07.754Z,20.8
2018-12-18T03:41:09.653Z,20.7
2018-12-18T03:42:11.552Z,20.8
2018-12-18T03:43:13.179Z,20.7
2018-12-18T03:44:14.510Z,20.7
2018-12-18T03:45:16.402Z,20.8
2018-12-18T03:46:18.023Z,20.7
2018-12-18T03:47:19.375Z,20.7
2018-12-18T03:48:20.976Z,20.8
2018-12-18T03:49:22.880Z,20.7
2018-12-18T03:50:24.204Z,20.8
2018-12-18T03:51:25.808Z,20.7
2018-12-18T03:52:26.881Z,20.8
2018-12-18T03:53:28.794Z,20.8
2018-12-18T03:54:30.688Z,20.7
2018-12-18T03:55:32.013Z,20.8
2018-12-18T03:56:33.652Z,20.7
2018-12-18T03:57:35.551Z,20.8
2018-12-18T03:58:37.452Z,20.8
2018-12-18T03:59:39.347Z,20.8
2018-12-18T04:00:40.968Z,20.7
2018-12-18T04:01:42.868Z,20.8
2018-12-18T04:02:44.774Z,20.8
2018-12-18T04:03:46.395Z,20.8
2018-12-18T04:04:48.025Z,20.8
2018-12-18T04:05:49.641Z,20.8
2018-12-18T04:06:50.972Z,20.8
2018-12-18T04:07:52.591Z,20.7
2018-12-18T04:08:53.940Z,20.8
2018-12-18T04:09:55.271Z,20.7
2018-12-18T04:10:57.166Z,20.7
2018-12-18T04:11:58.521Z,20.8
2018-12-18T04:13:00.416Z,20.7
2018-12-18T04:14:01.748Z,20.8
2018-12-18T04:15:03.106Z,20.8
2018-12-18T04:16:04.440Z,20.8
2018-12-18T04:17:06.346Z,20.7
2018-12-18T04:18:08.250Z,20.8
2018-12-18T04:19:10.135Z,20.7
2018-12-18T04:20:11.776Z,20.7
2018-12-18T04:21:13.677Z,20.7
2018-12-18T04:22:15.575Z,20.8
2018-12-18T04:23:17.201Z,20.7
2018-12-18T04:24:18.826Z,20.7
2018-12-18T04:25:20.425Z,20.7
2018-12-18T04:26:22.323Z,20.8
2018-12-18T04:27:23.727Z,20.7
2018-12-18T04:28:25.335Z,20.7
2018-12-18T04:29:27.237Z,20.7
2018-12-18T04:30:28.862Z,20.8
2018-12-18T04:31:30.484Z,20.7
2018-12-18T04:32:32.381Z,20.7
2018-12-18T04:33:34.280Z,20.8
2018-12-18T04:34:42.633Z,20.7
2018-12-18T04:35:44.499Z,20.7
2018-12-18T04:36:46.398Z,20.8
2018-12-18T04:37:48.297Z,20.8
2018-12-18T04:38:49.643Z,20.7
2018-12-18T04:39:50.967Z,20.8
2018-12-18T04:40:52.591Z,20.8
2018-12-18T04:41:54.217Z,20.7
2018-12-18T04:42:56.115Z,20.7
2018-12-18T04:43:57.169Z,20.7
2018-12-18T04:44:58.789Z,20.8
2018-12-18T04:46:00.117Z,20.7
2018-12-18T04:47:02.019Z,20.7
2018-12-18T04:48:03.616Z,20.8
2018-12-18T04:49:05.290Z,20.7
2018-12-18T04:50:06.916Z,20.8
2018-12-18T04:51:07.963Z,20.7
2018-12-18T04:52:09.299Z,20.7
2018-12-18T04:53:11.194Z,20.8
2018-12-18T04:54:12.821Z,20.7
2018-12-18T04:55:14.443Z,20.7
2018-12-18T04:56:16.075Z,20.8
2018-12-18T04:57:17.705Z,20.7
2018-12-18T04:58:19.051Z,20.7
2018-12-18T04:59:20.696Z,20.8
2018-12-18T05:00:22.023Z,20.8
2018-12-18T05:01:23.924Z,20.7
2018-12-18T05:02:25.822Z,20.7
2018-12-18T05:03:27.447Z,20.8
2018-12-18T05:04:29.051Z,20.7
2018-12-18T05:05:30.652Z,20.7
2018-12-18T05:06:32.552Z,20.8
2018-12-18T05:07:33.898Z,20.7
2018-12-18T05:08:35.794Z,20.7
2018-12-18T05:09:37.124Z,20.7
2018-12-18T05:10:38.747Z,20.8
2018-12-18T05:11:40.647Z,20.8
2018-12-18T05:12:42.268Z,20.8
2018-12-18T05:13:43.613Z,20.7
2018-12-18T05:14:45.216Z,20.8
2018-12-18T05:15:47.119Z,20.7
2018-12-18T05:16:49.019Z,20.8
2018-12-18T05:17:50.921Z,20.8
2018-12-18T05:18:52.538Z,20.8
2018-12-18T05:19:54.138Z,20.7
2018-12-18T05:20:56.038Z,20.8
2018-12-18T05:21:57.938Z,20.8
2018-12-18T05:22:59.576Z,20.8
2018-12-18T05:24:00.643Z,20.8
2018-12-18T05:25:02.306Z,20.8
2018-12-18T05:26:03.637Z,20.9
2018-12-18T05:27:04.689Z,20.8
2018-12-18T05:28:06.587Z,20.9
2018-12-18T05:29:08.209Z,20.8
2018-12-18T05:30:10.104Z,20.8
2018-12-18T05:31:12.000Z,20.8
2018-12-18T05:32:13.900Z,20.9
2018-12-18T05:33:15.530Z,20.9
2018-12-18T05:34:17.150Z,20.8
2018-12-18T05:35:18.776Z,20.9
2018-12-18T05:36:20.402Z,20.9
2018-12-18T05:37:21.747Z,20.9
2018-12-18T05:38:23.643Z,20.9
2018-12-18T05:39:25.563Z,20.9
2018-12-18T05:40:27.464Z,20.9
2018-12-18T05:41:29.081Z,20.9
2018-12-18T05:42:30.976Z,20.9
2018-12-18T05:43:32.598Z,21
2018-12-18T05:44:33.923Z,20.9
2018-12-18T05:45:34.974Z,20.9
2018-12-18T05:46:36.870Z,20.9
2018-12-18T05:47:38.496Z,20.9
2018-12-18T05:48:39.847Z,21
2018-12-18T05:49:41.467Z,20.9
2018-12-18T05:50:43.094Z,20.9
2018-12-18T05:51:44.990Z,21
2018-12-18T05:52:46.611Z,20.9
2018-12-18T05:53:48.508Z,20.9
2018-12-18T05:54:49.875Z,20.9
2018-12-18T05:55:51.497Z,21
2018-12-18T05:56:53.120Z,20.9
2018-12-18T05:57:54.739Z,21
2018-12-18T05:58:56.400Z,20.9
2018-12-18T05:59:58.024Z,21
2018-12-18T06:00:59.349Z,20.9
2018-12-18T06:02:00.972Z,20.9
2018-12-18T06:03:02.593Z,21
2018-12-18T06:04:03.645Z,21
2018-12-18T06:05:05.269Z,20.9
2018-12-18T06:06:07.168Z,20.9
2018-12-18T06:07:08.787Z,21
2018-12-18T06:08:10.683Z,20.9
2018-12-18T06:09:11.757Z,21
2018-12-18T06:10:13.105Z,20.9
2018-12-18T06:11:14.437Z,20.9
2018-12-18T06:12:16.053Z,20.9
2018-12-18T06:13:17.672Z,20.9
2018-12-18T06:14:19.312Z,20.9
2018-12-18T06:15:20.936Z,20.9
2018-12-18T06:16:22.572Z,20.9
2018-12-18T06:17:24.471Z,20.9
2018-12-18T06:18:26.096Z,21
2018-12-18T06:19:27.445Z,20.9
2018-12-18T06:20:29.073Z,20.9
2018-12-18T06:21:30.420Z,20.9
2018-12-18T06:22:32.082Z,20.9
2018-12-18T06:23:33.430Z,20.9
2018-12-18T06:24:34.762Z,20.9
2018-12-18T06:25:36.661Z,20.9
2018-12-18T06:26:38.001Z,20.9
2018-12-18T06:27:39.742Z,20.9
2018-12-18T06:28:41.639Z,20.9
2018-12-18T06:29:43.004Z,20.9
2018-12-18T06:30:44.333Z,21
2018-12-18T06:31:46.352Z,20.9
2018-12-18T06:32:47.974Z,20.9
2018-12-18T06:33:49.875Z,20.9
2018-12-18T06:34:51.231Z,20.9
2018-12-18T06:35:52.279Z,21
2018-12-18T06:36:54.176Z,20.9
2018-12-18T06:37:56.077Z,21
2018-12-18T06:38:57.699Z,20.9
2018-12-18T06:39:59.045Z,20.9
2018-12-18T06:41:00.942Z,20.9
2018-12-18T06:42:02.566Z,20.9
2018-12-18T06:43:04.194Z,20.8
2018-12-18T06:44:05.796Z,20.9
2018-12-18T06:45:07.422Z,20.9
2018-12-18T06:46:09.021Z,20.9
2018-12-18T06:47:10.961Z,20.9
2018-12-18T06:48:12.856Z,20.8
2018-12-18T06:49:14.492Z,20.9
2018-12-18T06:50:16.114Z,20.8
2018-12-18T06:51:17.183Z,20.8
2018-12-18T06:52:18.809Z,20.9
2018-12-18T06:53:20.707Z,20.9
2018-12-18T06:54:22.336Z,20.9
2018-12-18T06:55:25.717Z,20.9
2018-12-18T06:56:27.105Z,20.8
2018-12-18T06:57:28.475Z,20.8
2018-12-18T06:58:30.382Z,20.9
2018-12-18T06:59:32.282Z,20.8
2018-12-18T07:00:34.185Z,20.9
2018-12-18T07:01:36.085Z,20.9
2018-12-18T07:02:37.709Z,20.8
2018-12-18T07:03:39.611Z,20.8
2018-12-18T07:04:41.513Z,20.9
2018-12-18T07:05:43.143Z,20.8
2018-12-18T07:06:44.512Z,20.9
2018-12-18T07:07:46.439Z,20.8
2018-12-18T07:08:47.811Z,20.8
2018-12-18T07:09:49.439Z,20.8
2018-12-18T07:10:50.772Z,20.8
2018-12-18T07:11:52.125Z,20.8
2018-12-18T07:12:53.823Z,20.9
2018-12-18T07:13:55.448Z,21
2018-12-18T07:14:57.350Z,20.9
2018-12-18T07:15:58.705Z,20.9
2018-12-18T07:17:00.616Z,20.9
2018-12-18T07:18:01.695Z,20.8
2018-12-18T07:19:03.635Z,20.9
2018-12-18T07:20:05.259Z,20.9
2018-12-18T07:21:06.864Z,20.8
2018-12-18T07:22:08.768Z,20.9
2018-12-18T07:23:10.673Z,20.9
2018-12-18T07:24:14.153Z,20.9
2018-12-18T07:25:15.968Z,20.9
2018-12-18T07:26:17.587Z,20.9
2018-12-18T07:27:18.948Z,20.9
2018-12-18T07:28:20.564Z,20.9
2018-12-18T07:29:22.241Z,20.8
2018-12-18T07:30:24.146Z,20.8
2018-12-18T07:31:25.502Z,20.9
2018-12-18T07:32:27.169Z,20.9
2018-12-18T07:33:28.748Z,20.9
2018-12-18T07:34:33.320Z,21
2018-12-18T07:35:34.750Z,20.9
2018-12-18T07:36:36.656Z,20.9
2018-12-18T07:37:37.991Z,20.9
2018-12-18T07:38:39.060Z,20.9
2018-12-18T07:39:40.962Z,21
2018-12-18T07:40:42.317Z,21
2018-12-18T07:41:43.950Z,20.9
2018-12-18T07:42:45.852Z,20.9
2018-12-18T07:43:47.180Z,21
2018-12-18T07:44:48.803Z,21
2018-12-18T07:45:50.133Z,21
2018-12-18T07:46:51.552Z,21
2018-12-18T07:47:53.456Z,21
2018-12-18T07:48:54.803Z,20.9
2018-12-18T07:49:56.701Z,21
2018-12-18T07:50:58.607Z,21.1
2018-12-18T07:51:59.938Z,21.1
2018-12-18T07:53:01.844Z,21
2018-12-18T07:54:03.814Z,21
2018-12-18T07:55:05.448Z,21.1
2018-12-18T07:56:07.064Z,21.1
2018-12-18T07:57:08.239Z,21.1
2018-12-18T07:58:09.591Z,21.1
2018-12-18T07:59:11.491Z,21
2018-12-18T08:00:13.117Z,21.1
2018-12-18T08:01:14.722Z,21.1
2018-12-18T08:02:16.145Z,21.1
2018-12-18T08:03:18.158Z,21
2018-12-18T08:04:19.535Z,21.1
2018-12-18T08:05:22.658Z,21.1
2018-12-18T08:06:30.524Z,21.1
2018-12-18T08:07:32.143Z,21.1
2018-12-18T08:08:33.498Z,21.1
2018-12-18T08:09:35.401Z,21.1
2018-12-18T08:10:37.302Z,21.1
2018-12-18T08:11:38.654Z,21.1
2018-12-18T08:12:40.013Z,21.1
2018-12-18T08:13:41.627Z,21.1
2018-12-18T08:14:43.274Z,21
2018-12-18T08:15:44.328Z,21
2018-12-18T08:16:45.962Z,21.1
2018-12-18T08:17:47.877Z,21.1
2018-12-18T08:18:49.491Z,21.1
2018-12-18T08:19:51.093Z,21.1
2018-12-18T08:20:52.993Z,21.2
2018-12-18T08:21:54.894Z,21.2
2018-12-18T08:22:56.501Z,21
2018-12-18T08:23:57.877Z,21.1
2018-12-18T08:24:59.611Z,21.2
2018-12-18T08:26:00.962Z,21.2
2018-12-18T08:27:02.587Z,21.1
2018-12-18T08:28:04.213Z,21.1
2018-12-18T08:29:06.120Z,21.2
2018-12-18T08:30:07.801Z,21.2
2018-12-18T08:31:09.138Z,21.2
2018-12-18T08:32:11.047Z,21.1
2018-12-18T08:33:12.674Z,21.1
2018-12-18T08:34:14.297Z,21.2
2018-12-18T08:35:16.201Z,21.1
2018-12-18T08:36:17.806Z,21.2
2018-12-18T08:37:19.436Z,21.2
2018-12-18T08:38:20.761Z,21
2018-12-18T08:39:22.435Z,21.2
2018-12-18T08:40:24.416Z,21.1
2018-12-18T08:41:25.773Z,21.1
2018-12-18T08:42:27.676Z,21.2
2018-12-18T08:43:29.644Z,21.1
2018-12-18T08:44:31.154Z,21.1
2018-12-18T08:45:32.792Z,21.1
2018-12-18T08:46:34.398Z,21
2018-12-18T08:47:36.018Z,21.1
2018-12-18T08:48:37.989Z,21
2018-12-18T08:49:39.565Z,21.1
2018-12-18T08:50:41.235Z,21.1
2018-12-18T08:51:42.969Z,21.1
2018-12-18T08:52:44.585Z,21.2
2018-12-18T08:53:46.246Z,21.1
2018-12-18T08:54:47.606Z,21.1
2018-12-18T08:55:49.357Z,21.2
2018-12-18T08:56:51.158Z,21.1
2018-12-18T08:57:52.872Z,21
2018-12-18T08:58:54.538Z,21.1
2018-12-18T08:59:56.407Z,21.1
2018-12-18T09:00:58.319Z,21.1
2018-12-18T09:02:00.005Z,21.2
2018-12-18T09:03:02.498Z,21.1
2018-12-18T09:04:04.132Z,21.1
2018-12-18T09:05:05.778Z,21.1
2018-12-18T09:06:07.177Z,21.1
2018-12-18T09:07:09.145Z,21.1
2018-12-18T09:08:10.943Z,21
2018-12-18T09:09:12.474Z,21.1
2018-12-18T09:10:15.058Z,21.2
2018-12-18T09:11:16.771Z,21
2018-12-18T09:12:18.398Z,21.2
2018-12-18T09:13:20.028Z,21
2018-12-18T09:14:21.354Z,21.2
2018-12-18T09:15:23.256Z,21.1
2018-12-18T09:16:24.652Z,21.1
2018-12-18T09:17:26.064Z,21.2
2018-12-18T09:18:27.761Z,21
2018-12-18T09:19:29.114Z,21.1
2018-12-18T09:20:30.743Z,21.2
2018-12-18T09:21:32.372Z,21.2
2018-12-18T09:22:33.999Z,21.1
2018-12-18T09:23:35.065Z,21.2
2018-12-18T09:24:36.400Z,21.1
2018-12-18T09:25:37.475Z,21.2
2018-12-18T09:26:38.573Z,21.2
2018-12-18T09:27:40.199Z,21.2
2018-12-18T09:28:41.829Z,21.1
2018-12-18T09:29:43.456Z,21.1
2018-12-18T09:30:44.792Z,21.1
2018-12-18T09:31:45.845Z,21
2018-12-18T09:32:47.472Z,21.1
2018-12-18T09:33:49.208Z,21.2
2018-12-18T09:34:51.110Z,21.1
2018-12-18T09:35:52.453Z,21.1
2018-12-18T09:36:54.079Z,21.2
2018-12-18T09:37:55.712Z,21.1
2018-12-18T09:38:57.335Z,21.1
2018-12-18T09:39:58.688Z,21.1
2018-12-18T09:41:00.322Z,21.1
2018-12-18T09:42:02.223Z,21.1
2018-12-18T09:43:03.283Z,21.1
2018-12-18T09:44:04.918Z,21.2
2018-12-18T09:45:06.540Z,21.3
2018-12-18T09:46:07.873Z,21.2
2018-12-18T09:47:09.779Z,21.2
2018-12-18T09:48:11.681Z,21.3
2018-12-18T09:49:13.590Z,21.3
2018-12-18T09:50:14.914Z,21.2
2018-12-18T09:51:16.522Z,21.3
2018-12-18T09:52:17.890Z,21.3
2018-12-18T09:53:19.559Z,21.3
2018-12-18T09:54:20.911Z,21.2
2018-12-18T09:55:22.545Z,21.2
2018-12-18T09:56:23.892Z,21.3
2018-12-18T09:57:25.245Z,21.3
2018-12-18T09:58:26.602Z,21.2
2018-12-18T09:59:28.548Z,21.2
2018-12-18T10:00:30.174Z,21.3
2018-12-18T10:01:32.081Z,21.3
2018-12-18T10:02:33.805Z,21.3
2018-12-18T10:03:35.422Z,21.3
2018-12-18T10:04:37.338Z,21.3
2018-12-18T10:05:38.665Z,21.3
2018-12-18T10:06:40.271Z,21.3
2018-12-18T10:07:41.606Z,21.3
2018-12-18T10:08:42.933Z,21.3
2018-12-18T10:09:44.287Z,21.3
2018-12-18T10:10:46.190Z,21.3
2018-12-18T10:11:48.125Z,21.3
2018-12-18T10:12:50.049Z,21.3
2018-12-18T10:13:51.680Z,21.3
2018-12-18T10:14:52.752Z,21.4
2018-12-18T10:15:54.662Z,21.3
2018-12-18T10:16:56.284Z,21.3
2018-12-18T10:17:58.187Z,21.3
2018-12-18T10:19:00.096Z,21.4
2018-12-18T10:20:01.451Z,21.3
2018-12-18T10:21:02.784Z,21.3
2018-12-18T10:22:04.120Z,21.4
2018-12-18T10:23:06.025Z,21.4
2018-12-18T10:24:07.926Z,21.4
2018-12-18T10:25:09.556Z,21.4
2018-12-18T10:26:11.200Z,21.3
2018-12-18T10:27:12.820Z,21.4
2018-12-18T10:28:14.425Z,21.4
2018-12-18T10:29:15.760Z,21.4
2018-12-18T10:30:17.385Z,21.4
2018-12-18T10:31:19.289Z,21.4
2018-12-18T10:32:21.187Z,21.4
2018-12-18T10:33:22.838Z,21.4
2018-12-18T10:34:24.318Z,21.4
2018-12-18T10:35:25.941Z,21.4
2018-12-18T10:36:27.842Z,21.4
2018-12-18T10:37:29.750Z,21.3
2018-12-18T10:38:31.375Z,21.4
2018-12-18T10:39:33.276Z,21.4
2018-12-18T10:40:34.604Z,21.4
2018-12-18T10:41:36.209Z,21.4
2018-12-18T10:42:38.110Z,21.4
2018-12-18T10:43:40.014Z,21.4
2018-12-18T10:44:41.917Z,21.4
2018-12-18T10:45:43.316Z,21.3
2018-12-18T10:46:44.655Z,21.4
2018-12-18T10:47:46.557Z,21.4
2018-12-18T10:48:48.161Z,21.4
2018-12-18T10:49:49.568Z,21.4
2018-12-18T10:50:51.172Z,21.4
2018-12-18T10:51:52.796Z,21.4
2018-12-18T10:52:54.701Z,21.5
2018-12-18T10:53:56.088Z,21.4
2018-12-18T10:54:57.708Z,21.4
2018-12-18T10:55:59.661Z,21.4
2018-12-18T10:57:00.715Z,21.5
2018-12-18T10:58:02.693Z,21.4
2018-12-18T10:59:04.597Z,21.4
2018-12-18T11:00:06.495Z,21.5
2018-12-18T11:01:08.140Z,21.4
2018-12-18T11:02:10.072Z,21.4
2018-12-18T11:03:11.422Z,21.4
2018-12-18T11:04:12.480Z,21.4
2018-12-18T11:05:13.809Z,21.4
2018-12-18T11:06:15.137Z,21.4
2018-12-18T11:07:17.176Z,21.5
2018-12-18T11:08:18.816Z,21.5
2018-12-18T11:09:20.707Z,21.4
2018-12-18T11:10:22.361Z,21.5
